sensor_id;sensor_type;location;lat;lon;timestamp;temperature;humidity
10437;DHT22;5265;50.006;9.202;2023-04-16T00:02:04;8.70;99.90
10437;DHT22;5265;50.006;9.202;2023-04-16T00:04:31;8.70;99.90
10437;DHT22;5265;50.006;9.202;2023-04-16T00:06:58;8.70;99.90
10437;DHT22;5265;50.006;9.202;2023-04-16T00:09:25;8.70;99.90
10437;DHT22;5265;50.006;9.202;2023-04-16T00:11:53;8.70;99.90
10437;DHT22;5265;50.006;9.202;2023-04-16T00:14:20;8.70;99.90
10437;DHT22;5265;50.006;9.202;2023-04-16T00:16:48;8.70;99.90
10437;DHT22;5265;50.006;9.202;2023-04-16T00:19:15;8.60;99.90
10437;DHT22;5265;50.006;9.202;2023-04-16T00:21:43;8.60;99.90
10437;DHT22;5265;50.006;9.202;2023-04-16T00:24:10;8.60;99.90
10437;DHT22;5265;50.006;9.202;2023-04-16T00:26:37;8.50;99.90
10437;DHT22;5265;50.006;9.202;2023-04-16T00:29:05;8.50;99.90
10437;DHT22;5265;50.006;9.202;2023-04-16T00:31:33;8.40;99.90
10437;DHT22;5265;50.006;9.202;2023-04-16T00:34:03;8.60;99.90
10437;DHT22;5265;50.006;9.202;2023-04-16T00:36:30;8.50;99.90
10437;DHT22;5265;50.006;9.202;2023-04-16T00:38:58;8.60;99.90
10437;DHT22;5265;50.006;9.202;2023-04-16T00:41:25;8.50;99.90
10437;DHT22;5265;50.006;9.202;2023-04-16T00:43:52;8.50;99.90
10437;DHT22;5265;50.006;9.202;2023-04-16T00:46:19;8.50;99.90
10437;DHT22;5265;50.006;9.202;2023-04-16T00:48:47;8.60;99.90
10437;DHT22;5265;50.006;9.202;2023-04-16T00:51:17;8.60;99.90
10437;DHT22;5265;50.006;9.202;2023-04-16T00:53:44;8.50;99.90
10437;DHT22;5265;50.006;9.202;2023-04-16T00:56:12;8.50;99.90
10437;DHT22;5265;50.006;9.202;2023-04-16T00:58:39;8.60;99.90
10437;DHT22;5265;50.006;9.202;2023-04-16T01:01:07;8.60;99.90
10437;DHT22;5265;50.006;9.202;2023-04-16T01:03:36;8.60;99.90
10437;DHT22;5265;50.006;9.202;2023-04-16T01:06:04;8.60;99.90
10437;DHT22;5265;50.006;9.202;2023-04-16T01:08:33;8.60;99.90
10437;DHT22;5265;50.006;9.202;2023-04-16T01:11:01;8.60;99.90
10437;DHT22;5265;50.006;9.202;2023-04-16T01:13:28;8.50;99.90
10437;DHT22;5265;50.006;9.202;2023-04-16T01:15:55;8.50;99.90
10437;DHT22;5265;50.006;9.202;2023-04-16T01:18:22;8.60;99.90
10437;DHT22;5265;50.006;9.202;2023-04-16T01:20:51;8.60;99.90
10437;DHT22;5265;50.006;9.202;2023-04-16T01:23:19;8.50;99.90
10437;DHT22;5265;50.006;9.202;2023-04-16T01:25:46;8.50;99.90
10437;DHT22;5265;50.006;9.202;2023-04-16T01:28:13;8.50;99.90
10437;DHT22;5265;50.006;9.202;2023-04-16T01:30:41;8.60;99.90
10437;DHT22;5265;50.006;9.202;2023-04-16T01:33:19;8.50;99.90
10437;DHT22;5265;50.006;9.202;2023-04-16T01:35:47;8.50;99.90
10437;DHT22;5265;50.006;9.202;2023-04-16T01:38:16;8.40;99.90
10437;DHT22;5265;50.006;9.202;2023-04-16T01:40:43;8.50;99.90
10437;DHT22;5265;50.006;9.202;2023-04-16T01:43:10;8.50;99.90
10437;DHT22;5265;50.006;9.202;2023-04-16T01:45:38;8.50;99.90
10437;DHT22;5265;50.006;9.202;2023-04-16T01:48:05;8.50;99.90
10437;DHT22;5265;50.006;9.202;2023-04-16T01:50:32;8.50;99.90
10437;DHT22;5265;50.006;9.202;2023-04-16T01:53:00;8.50;99.90
10437;DHT22;5265;50.006;9.202;2023-04-16T01:55:31;8.50;99.90
10437;DHT22;5265;50.006;9.202;2023-04-16T01:57:59;8.60;99.90
10437;DHT22;5265;50.006;9.202;2023-04-16T02:00:29;8.50;99.90
10437;DHT22;5265;50.006;9.202;2023-04-16T02:02:57;8.50;99.90
10437;DHT22;5265;50.006;9.202;2023-04-16T02:05:27;8.50;99.90
10437;DHT22;5265;50.006;9.202;2023-04-16T02:07:54;8.50;99.90
10437;DHT22;5265;50.006;9.202;2023-04-16T02:10:21;8.60;99.90
10437;DHT22;5265;50.006;9.202;2023-04-16T02:12:50;8.50;99.90
10437;DHT22;5265;50.006;9.202;2023-04-16T02:15:17;8.50;99.90
10437;DHT22;5265;50.006;9.202;2023-04-16T02:17:44;8.50;99.90
10437;DHT22;5265;50.006;9.202;2023-04-16T02:20:14;8.60;99.90
10437;DHT22;5265;50.006;9.202;2023-04-16T02:22:53;8.60;99.90
10437;DHT22;5265;50.006;9.202;2023-04-16T02:25:22;8.60;99.90
10437;DHT22;5265;50.006;9.202;2023-04-16T02:27:53;8.60;99.90
10437;DHT22;5265;50.006;9.202;2023-04-16T02:30:35;8.50;99.90
10437;DHT22;5265;50.006;9.202;2023-04-16T02:33:04;8.60;99.90
10437;DHT22;5265;50.006;9.202;2023-04-16T02:35:33;8.70;99.90
10437;DHT22;5265;50.006;9.202;2023-04-16T02:38:01;8.60;99.90
10437;DHT22;5265;50.006;9.202;2023-04-16T02:40:29;8.60;99.90
10437;DHT22;5265;50.006;9.202;2023-04-16T02:42:58;8.60;99.90
10437;DHT22;5265;50.006;9.202;2023-04-16T02:45:26;8.60;99.90
10437;DHT22;5265;50.006;9.202;2023-04-16T02:47:53;8.60;99.90
10437;DHT22;5265;50.006;9.202;2023-04-16T02:50:20;8.70;99.90
10437;DHT22;5265;50.006;9.202;2023-04-16T02:52:47;8.60;99.90
10437;DHT22;5265;50.006;9.202;2023-04-16T02:55:16;8.70;99.90
10437;DHT22;5265;50.006;9.202;2023-04-16T02:57:43;8.60;99.90
10437;DHT22;5265;50.006;9.202;2023-04-16T03:00:12;8.60;99.90
10437;DHT22;5265;50.006;9.202;2023-04-16T03:02:39;8.70;99.90
10437;DHT22;5265;50.006;9.202;2023-04-16T03:05:07;8.70;99.90
10437;DHT22;5265;50.006;9.202;2023-04-16T03:07:35;8.80;99.90
10437;DHT22;5265;50.006;9.202;2023-04-16T03:10:04;8.60;99.90
10437;DHT22;5265;50.006;9.202;2023-04-16T03:12:31;8.70;99.90
10437;DHT22;5265;50.006;9.202;2023-04-16T03:14:59;8.80;99.90
10437;DHT22;5265;50.006;9.202;2023-04-16T03:17:27;8.80;99.90
10437;DHT22;5265;50.006;9.202;2023-04-16T03:19:54;8.70;99.90
10437;DHT22;5265;50.006;9.202;2023-04-16T03:22:22;8.70;99.90
10437;DHT22;5265;50.006;9.202;2023-04-16T03:24:49;8.80;99.90
10437;DHT22;5265;50.006;9.202;2023-04-16T03:27:16;8.70;99.90
10437;DHT22;5265;50.006;9.202;2023-04-16T03:29:44;8.80;99.90
10437;DHT22;5265;50.006;9.202;2023-04-16T03:32:11;8.80;99.90
10437;DHT22;5265;50.006;9.202;2023-04-16T03:34:40;8.90;99.90
10437;DHT22;5265;50.006;9.202;2023-04-16T03:37:07;8.80;99.90
10437;DHT22;5265;50.006;9.202;2023-04-16T03:39:37;8.70;99.90
10437;DHT22;5265;50.006;9.202;2023-04-16T03:42:04;8.70;99.90
10437;DHT22;5265;50.006;9.202;2023-04-16T03:44:33;8.80;99.90
10437;DHT22;5265;50.006;9.202;2023-04-16T03:47:01;8.80;99.90
10437;DHT22;5265;50.006;9.202;2023-04-16T03:49:28;8.80;99.90
10437;DHT22;5265;50.006;9.202;2023-04-16T03:51:57;8.80;99.90
10437;DHT22;5265;50.006;9.202;2023-04-16T03:54:25;8.70;99.90
10437;DHT22;5265;50.006;9.202;2023-04-16T03:57:03;8.70;99.90
10437;DHT22;5265;50.006;9.202;2023-04-16T03:59:33;8.70;99.90
10437;DHT22;5265;50.006;9.202;2023-04-16T04:02:00;8.70;99.90
10437;DHT22;5265;50.006;9.202;2023-04-16T04:04:27;8.70;99.90
10437;DHT22;5265;50.006;9.202;2023-04-16T04:06:57;8.60;99.90
10437;DHT22;5265;50.006;9.202;2023-04-16T04:09:26;8.70;99.90
10437;DHT22;5265;50.006;9.202;2023-04-16T04:11:53;8.70;99.90
10437;DHT22;5265;50.006;9.202;2023-04-16T04:14:20;8.70;99.90
10437;DHT22;5265;50.006;9.202;2023-04-16T04:16:47;8.60;99.90
10437;DHT22;5265;50.006;9.202;2023-04-16T04:19:15;8.60;99.90
10437;DHT22;5265;50.006;9.202;2023-04-16T04:21:42;8.70;99.90
10437;DHT22;5265;50.006;9.202;2023-04-16T04:24:10;8.70;99.90
10437;DHT22;5265;50.006;9.202;2023-04-16T04:26:38;8.60;99.90
10437;DHT22;5265;50.006;9.202;2023-04-16T04:29:05;8.70;99.90
10437;DHT22;5265;50.006;9.202;2023-04-16T04:31:31;8.70;99.90
10437;DHT22;5265;50.006;9.202;2023-04-16T04:34:00;8.70;99.90
10437;DHT22;5265;50.006;9.202;2023-04-16T04:36:28;8.60;99.90
10437;DHT22;5265;50.006;9.202;2023-04-16T04:38:55;8.60;99.90
10437;DHT22;5265;50.006;9.202;2023-04-16T04:41:24;8.60;99.90
10437;DHT22;5265;50.006;9.202;2023-04-16T04:43:52;8.60;99.90
10437;DHT22;5265;50.006;9.202;2023-04-16T04:46:19;8.60;99.90
10437;DHT22;5265;50.006;9.202;2023-04-16T04:48:47;8.60;99.90
10437;DHT22;5265;50.006;9.202;2023-04-16T04:51:15;8.70;99.90
10437;DHT22;5265;50.006;9.202;2023-04-16T04:53:45;8.70;99.90
10437;DHT22;5265;50.006;9.202;2023-04-16T04:56:12;8.70;99.90
10437;DHT22;5265;50.006;9.202;2023-04-16T04:58:41;8.70;99.90
10437;DHT22;5265;50.006;9.202;2023-04-16T05:01:08;8.70;99.90
10437;DHT22;5265;50.006;9.202;2023-04-16T05:03:35;8.70;99.90
10437;DHT22;5265;50.006;9.202;2023-04-16T05:06:03;8.60;99.90
10437;DHT22;5265;50.006;9.202;2023-04-16T05:08:30;8.70;99.90
10437;DHT22;5265;50.006;9.202;2023-04-16T05:10:57;8.60;99.90
10437;DHT22;5265;50.006;9.202;2023-04-16T05:13:24;8.70;99.90
10437;DHT22;5265;50.006;9.202;2023-04-16T05:15:53;8.70;99.90
10437;DHT22;5265;50.006;9.202;2023-04-16T05:18:20;8.60;99.90
10437;DHT22;5265;50.006;9.202;2023-04-16T05:20:47;8.70;99.90
10437;DHT22;5265;50.006;9.202;2023-04-16T05:23:14;8.70;99.90
10437;DHT22;5265;50.006;9.202;2023-04-16T05:25:41;8.70;99.90
10437;DHT22;5265;50.006;9.202;2023-04-16T05:28:09;8.70;99.90
10437;DHT22;5265;50.006;9.202;2023-04-16T05:30:36;8.70;99.90
10437;DHT22;5265;50.006;9.202;2023-04-16T05:33:04;8.60;99.90
10437;DHT22;5265;50.006;9.202;2023-04-16T05:35:31;8.60;99.90
10437;DHT22;5265;50.006;9.202;2023-04-16T05:37:59;8.70;99.90
10437;DHT22;5265;50.006;9.202;2023-04-16T05:40:26;8.70;99.90
10437;DHT22;5265;50.006;9.202;2023-04-16T05:42:53;8.70;99.90
10437;DHT22;5265;50.006;9.202;2023-04-16T05:45:20;8.70;99.90
10437;DHT22;5265;50.006;9.202;2023-04-16T05:47:48;8.70;99.90
10437;DHT22;5265;50.006;9.202;2023-04-16T05:50:16;8.70;99.90
10437;DHT22;5265;50.006;9.202;2023-04-16T05:52:43;8.80;99.90
10437;DHT22;5265;50.006;9.202;2023-04-16T05:55:10;8.80;99.90
10437;DHT22;5265;50.006;9.202;2023-04-16T05:57:37;8.80;99.90
10437;DHT22;5265;50.006;9.202;2023-04-16T06:00:05;8.60;99.90
10437;DHT22;5265;50.006;9.202;2023-04-16T06:02:41;8.60;99.90
10437;DHT22;5265;50.006;9.202;2023-04-16T06:05:08;8.60;99.90
10437;DHT22;5265;50.006;9.202;2023-04-16T06:07:37;8.60;99.90
10437;DHT22;5265;50.006;9.202;2023-04-16T06:10:04;8.60;99.90
10437;DHT22;5265;50.006;9.202;2023-04-16T06:12:32;8.50;99.90
10437;DHT22;5265;50.006;9.202;2023-04-16T06:14:59;8.60;99.90
10437;DHT22;5265;50.006;9.202;2023-04-16T06:17:26;8.60;99.90
10437;DHT22;5265;50.006;9.202;2023-04-16T06:19:54;8.50;99.90
10437;DHT22;5265;50.006;9.202;2023-04-16T06:22:21;8.70;99.90
10437;DHT22;5265;50.006;9.202;2023-04-16T06:24:49;8.60;99.90
10437;DHT22;5265;50.006;9.202;2023-04-16T06:27:16;8.60;99.90
10437;DHT22;5265;50.006;9.202;2023-04-16T06:29:44;8.60;99.90
10437;DHT22;5265;50.006;9.202;2023-04-16T06:32:11;8.60;99.90
10437;DHT22;5265;50.006;9.202;2023-04-16T06:34:38;8.60;99.90
10437;DHT22;5265;50.006;9.202;2023-04-16T06:37:05;8.60;99.90
10437;DHT22;5265;50.006;9.202;2023-04-16T06:39:32;8.60;99.90
10437;DHT22;5265;50.006;9.202;2023-04-16T06:42:01;8.60;99.90
10437;DHT22;5265;50.006;9.202;2023-04-16T06:44:28;8.60;99.90
10437;DHT22;5265;50.006;9.202;2023-04-16T06:46:55;8.60;99.90
10437;DHT22;5265;50.006;9.202;2023-04-16T06:49:22;8.60;99.90
10437;DHT22;5265;50.006;9.202;2023-04-16T06:51:49;8.60;99.90
10437;DHT22;5265;50.006;9.202;2023-04-16T06:54:16;8.50;99.90
10437;DHT22;5265;50.006;9.202;2023-04-16T06:56:44;8.30;99.90
10437;DHT22;5265;50.006;9.202;2023-04-16T06:59:13;8.40;99.90
10437;DHT22;5265;50.006;9.202;2023-04-16T07:01:40;8.40;99.90
10437;DHT22;5265;50.006;9.202;2023-04-16T07:04:07;8.30;99.90
10437;DHT22;5265;50.006;9.202;2023-04-16T07:06:35;8.40;99.90
10437;DHT22;5265;50.006;9.202;2023-04-16T07:09:02;8.40;99.90
10437;DHT22;5265;50.006;9.202;2023-04-16T07:11:29;8.40;99.90
10437;DHT22;5265;50.006;9.202;2023-04-16T07:13:56;8.40;99.90
10437;DHT22;5265;50.006;9.202;2023-04-16T07:16:25;8.40;99.90
10437;DHT22;5265;50.006;9.202;2023-04-16T07:18:52;8.40;99.90
10437;DHT22;5265;50.006;9.202;2023-04-16T07:21:19;8.50;99.90
10437;DHT22;5265;50.006;9.202;2023-04-16T07:23:46;8.50;99.90
10437;DHT22;5265;50.006;9.202;2023-04-16T07:26:14;8.40;99.90
10437;DHT22;5265;50.006;9.202;2023-04-16T07:28:41;8.50;99.90
10437;DHT22;5265;50.006;9.202;2023-04-16T07:31:08;8.50;99.90
10437;DHT22;5265;50.006;9.202;2023-04-16T07:33:37;8.60;99.90
10437;DHT22;5265;50.006;9.202;2023-04-16T07:36:04;8.60;99.90
10437;DHT22;5265;50.006;9.202;2023-04-16T07:38:31;8.50;99.90
10437;DHT22;5265;50.006;9.202;2023-04-16T07:40:59;8.60;99.90
10437;DHT22;5265;50.006;9.202;2023-04-16T07:43:26;8.70;99.90
10437;DHT22;5265;50.006;9.202;2023-04-16T07:45:53;8.60;99.90
10437;DHT22;5265;50.006;9.202;2023-04-16T07:48:20;8.60;99.90
10437;DHT22;5265;50.006;9.202;2023-04-16T07:50:48;8.60;99.90
10437;DHT22;5265;50.006;9.202;2023-04-16T07:53:16;8.60;99.90
10437;DHT22;5265;50.006;9.202;2023-04-16T07:55:43;8.60;99.90
10437;DHT22;5265;50.006;9.202;2023-04-16T07:58:10;8.70;99.90
10437;DHT22;5265;50.006;9.202;2023-04-16T08:00:37;8.70;99.90
10437;DHT22;5265;50.006;9.202;2023-04-16T08:03:05;8.80;99.90
10437;DHT22;5265;50.006;9.202;2023-04-16T08:05:32;8.80;99.90
10437;DHT22;5265;50.006;9.202;2023-04-16T08:08:00;8.80;99.90
10437;DHT22;5265;50.006;9.202;2023-04-16T08:10:28;8.80;99.90
10437;DHT22;5265;50.006;9.202;2023-04-16T08:12:55;8.90;99.90
10437;DHT22;5265;50.006;9.202;2023-04-16T08:15:22;8.80;99.90
10437;DHT22;5265;50.006;9.202;2023-04-16T08:17:49;8.80;99.90
10437;DHT22;5265;50.006;9.202;2023-04-16T08:20:16;8.90;99.90
10437;DHT22;5265;50.006;9.202;2023-04-16T08:22:43;8.90;99.90
10437;DHT22;5265;50.006;9.202;2023-04-16T08:25:11;8.90;99.90
10437;DHT22;5265;50.006;9.202;2023-04-16T08:27:41;8.90;99.90
10437;DHT22;5265;50.006;9.202;2023-04-16T08:30:09;8.90;99.90
10437;DHT22;5265;50.006;9.202;2023-04-16T08:32:36;8.90;99.90
10437;DHT22;5265;50.006;9.202;2023-04-16T08:35:03;8.90;99.90
10437;DHT22;5265;50.006;9.202;2023-04-16T08:37:30;8.90;99.90
10437;DHT22;5265;50.006;9.202;2023-04-16T08:39:57;9.00;99.90
10437;DHT22;5265;50.006;9.202;2023-04-16T08:42:29;9.00;99.90
10437;DHT22;5265;50.006;9.202;2023-04-16T08:44:59;8.90;99.90
10437;DHT22;5265;50.006;9.202;2023-04-16T08:47:29;9.00;99.90
10437;DHT22;5265;50.006;9.202;2023-04-16T08:49:59;9.10;99.90
10437;DHT22;5265;50.006;9.202;2023-04-16T08:52:26;9.10;99.90
10437;DHT22;5265;50.006;9.202;2023-04-16T08:54:56;9.10;99.90
10437;DHT22;5265;50.006;9.202;2023-04-16T08:57:29;9.20;99.90
10437;DHT22;5265;50.006;9.202;2023-04-16T08:59:56;9.20;99.90
10437;DHT22;5265;50.006;9.202;2023-04-16T09:02:24;9.10;99.90
10437;DHT22;5265;50.006;9.202;2023-04-16T09:04:51;9.10;99.90
10437;DHT22;5265;50.006;9.202;2023-04-16T09:07:19;9.10;99.90
10437;DHT22;5265;50.006;9.202;2023-04-16T09:09:46;9.20;99.90
10437;DHT22;5265;50.006;9.202;2023-04-16T09:12:14;9.10;99.90
10437;DHT22;5265;50.006;9.202;2023-04-16T09:14:42;9.10;99.90
10437;DHT22;5265;50.006;9.202;2023-04-16T09:17:12;9.10;99.90
10437;DHT22;5265;50.006;9.202;2023-04-16T09:19:40;9.20;99.90
10437;DHT22;5265;50.006;9.202;2023-04-16T09:22:07;9.20;99.90
10437;DHT22;5265;50.006;9.202;2023-04-16T09:24:34;9.20;99.90
10437;DHT22;5265;50.006;9.202;2023-04-16T09:27:03;9.30;99.90
10437;DHT22;5265;50.006;9.202;2023-04-16T09:29:33;9.30;99.90
10437;DHT22;5265;50.006;9.202;2023-04-16T09:32:03;9.30;99.90
10437;DHT22;5265;50.006;9.202;2023-04-16T09:34:30;9.40;99.90
10437;DHT22;5265;50.006;9.202;2023-04-16T09:37:12;9.50;99.90
10437;DHT22;5265;50.006;9.202;2023-04-16T09:39:40;9.50;99.90
10437;DHT22;5265;50.006;9.202;2023-04-16T09:42:07;9.50;99.90
10437;DHT22;5265;50.006;9.202;2023-04-16T09:44:34;9.50;99.90
10437;DHT22;5265;50.006;9.202;2023-04-16T09:47:06;9.50;99.90
10437;DHT22;5265;50.006;9.202;2023-04-16T09:49:33;9.50;99.90
10437;DHT22;5265;50.006;9.202;2023-04-16T09:52:01;9.50;99.90
10437;DHT22;5265;50.006;9.202;2023-04-16T09:54:28;9.50;99.90
10437;DHT22;5265;50.006;9.202;2023-04-16T09:56:55;9.60;99.90
10437;DHT22;5265;50.006;9.202;2023-04-16T09:59:23;9.60;99.90
10437;DHT22;5265;50.006;9.202;2023-04-16T10:01:50;9.70;99.90
10437;DHT22;5265;50.006;9.202;2023-04-16T10:04:19;9.70;99.90
10437;DHT22;5265;50.006;9.202;2023-04-16T10:06:57;9.70;99.90
10437;DHT22;5265;50.006;9.202;2023-04-16T10:09:30;9.70;99.90
10437;DHT22;5265;50.006;9.202;2023-04-16T10:11:57;9.60;99.90
10437;DHT22;5265;50.006;9.202;2023-04-16T10:14:25;9.60;99.90
10437;DHT22;5265;50.006;9.202;2023-04-16T10:16:51;9.60;99.90
10437;DHT22;5265;50.006;9.202;2023-04-16T10:19:20;9.70;99.90
10437;DHT22;5265;50.006;9.202;2023-04-16T10:21:47;9.70;99.90
10437;DHT22;5265;50.006;9.202;2023-04-16T10:24:14;9.70;99.90
10437;DHT22;5265;50.006;9.202;2023-04-16T10:26:42;9.80;99.90
10437;DHT22;5265;50.006;9.202;2023-04-16T10:29:10;9.80;99.90
10437;DHT22;5265;50.006;9.202;2023-04-16T10:31:37;9.80;99.90
10437;DHT22;5265;50.006;9.202;2023-04-16T10:34:05;9.80;99.90
10437;DHT22;5265;50.006;9.202;2023-04-16T10:36:35;9.90;99.90
10437;DHT22;5265;50.006;9.202;2023-04-16T10:39:02;9.90;99.90
10437;DHT22;5265;50.006;9.202;2023-04-16T10:41:31;9.90;99.90
10437;DHT22;5265;50.006;9.202;2023-04-16T10:44:02;9.90;99.90
10437;DHT22;5265;50.006;9.202;2023-04-16T10:46:31;9.90;99.90
10437;DHT22;5265;50.006;9.202;2023-04-16T10:48:59;10.00;99.90
10437;DHT22;5265;50.006;9.202;2023-04-16T10:51:27;10.00;99.90
10437;DHT22;5265;50.006;9.202;2023-04-16T10:54:01;10.00;99.90
10437;DHT22;5265;50.006;9.202;2023-04-16T10:56:30;10.20;99.90
10437;DHT22;5265;50.006;9.202;2023-04-16T10:58:57;10.20;99.90
10437;DHT22;5265;50.006;9.202;2023-04-16T11:01:31;10.20;99.90
10437;DHT22;5265;50.006;9.202;2023-04-16T11:03:58;10.20;99.90
10437;DHT22;5265;50.006;9.202;2023-04-16T11:06:27;10.20;99.90
10437;DHT22;5265;50.006;9.202;2023-04-16T11:08:54;10.20;99.90
10437;DHT22;5265;50.006;9.202;2023-04-16T11:11:23;10.20;99.90
10437;DHT22;5265;50.006;9.202;2023-04-16T11:13:53;10.30;99.90
10437;DHT22;5265;50.006;9.202;2023-04-16T11:16:20;10.30;99.90
10437;DHT22;5265;50.006;9.202;2023-04-16T11:18:47;10.30;99.90
10437;DHT22;5265;50.006;9.202;2023-04-16T11:21:15;10.30;99.90
10437;DHT22;5265;50.006;9.202;2023-04-16T11:23:46;10.30;99.90
10437;DHT22;5265;50.006;9.202;2023-04-16T11:26:25;10.30;99.90
10437;DHT22;5265;50.006;9.202;2023-04-16T11:28:52;10.30;99.90
10437;DHT22;5265;50.006;9.202;2023-04-16T11:31:19;10.40;99.90
10437;DHT22;5265;50.006;9.202;2023-04-16T11:33:46;10.30;99.90
10437;DHT22;5265;50.006;9.202;2023-04-16T11:36:13;10.30;99.90
10437;DHT22;5265;50.006;9.202;2023-04-16T11:38:40;10.30;99.90
10437;DHT22;5265;50.006;9.202;2023-04-16T11:41:08;10.40;99.90
10437;DHT22;5265;50.006;9.202;2023-04-16T11:43:36;10.40;99.90
10437;DHT22;5265;50.006;9.202;2023-04-16T11:46:04;10.30;99.90
10437;DHT22;5265;50.006;9.202;2023-04-16T11:51:20;10.20;99.90
10437;DHT22;5265;50.006;9.202;2023-04-16T11:53:48;10.20;99.90
10437;DHT22;5265;50.006;9.202;2023-04-16T11:56:23;10.20;99.90
10437;DHT22;5265;50.006;9.202;2023-04-16T11:59:11;10.20;99.90
10437;DHT22;5265;50.006;9.202;2023-04-16T12:01:38;10.30;99.90
10437;DHT22;5265;50.006;9.202;2023-04-16T12:04:06;10.30;99.90
10437;DHT22;5265;50.006;9.202;2023-04-16T12:06:33;10.30;99.90
10437;DHT22;5265;50.006;9.202;2023-04-16T12:11:42;10.20;99.90
10437;DHT22;5265;50.006;9.202;2023-04-16T12:14:11;10.20;99.90
10437;DHT22;5265;50.006;9.202;2023-04-16T12:16:38;10.20;99.90
10437;DHT22;5265;50.006;9.202;2023-04-16T12:19:05;10.10;99.90
10437;DHT22;5265;50.006;9.202;2023-04-16T12:21:36;10.10;99.90
10437;DHT22;5265;50.006;9.202;2023-04-16T12:24:03;10.10;99.90
10437;DHT22;5265;50.006;9.202;2023-04-16T12:26:36;10.10;99.90
10437;DHT22;5265;50.006;9.202;2023-04-16T12:29:18;10.00;99.90
10437;DHT22;5265;50.006;9.202;2023-04-16T12:31:46;10.10;99.90
10437;DHT22;5265;50.006;9.202;2023-04-16T12:34:13;10.10;99.90
10437;DHT22;5265;50.006;9.202;2023-04-16T12:36:41;10.10;99.90
10437;DHT22;5265;50.006;9.202;2023-04-16T12:39:08;10.20;99.90
10437;DHT22;5265;50.006;9.202;2023-04-16T12:41:36;10.20;99.90
10437;DHT22;5265;50.006;9.202;2023-04-16T12:44:04;10.20;99.90
10437;DHT22;5265;50.006;9.202;2023-04-16T12:46:35;10.20;99.90
10437;DHT22;5265;50.006;9.202;2023-04-16T12:49:03;10.20;99.90
10437;DHT22;5265;50.006;9.202;2023-04-16T12:51:30;10.20;99.90
10437;DHT22;5265;50.006;9.202;2023-04-16T12:53:58;10.20;99.90
10437;DHT22;5265;50.006;9.202;2023-04-16T12:56:25;10.20;99.90
10437;DHT22;5265;50.006;9.202;2023-04-16T12:58:52;10.20;99.90
10437;DHT22;5265;50.006;9.202;2023-04-16T13:01:19;10.20;99.90
10437;DHT22;5265;50.006;9.202;2023-04-16T13:03:48;10.20;99.90
10437;DHT22;5265;50.006;9.202;2023-04-16T13:06:15;10.20;99.90
10437;DHT22;5265;50.006;9.202;2023-04-16T13:08:43;10.20;99.90
10437;DHT22;5265;50.006;9.202;2023-04-16T13:11:10;10.20;99.90
10437;DHT22;5265;50.006;9.202;2023-04-16T13:13:38;10.20;99.90
10437;DHT22;5265;50.006;9.202;2023-04-16T13:16:05;10.30;99.90
10437;DHT22;5265;50.006;9.202;2023-04-16T13:18:33;10.40;99.90
10437;DHT22;5265;50.006;9.202;2023-04-16T13:21:02;10.40;99.90
10437;DHT22;5265;50.006;9.202;2023-04-16T13:23:29;10.40;99.90
10437;DHT22;5265;50.006;9.202;2023-04-16T13:25:56;10.50;99.90
10437;DHT22;5265;50.006;9.202;2023-04-16T13:28:24;10.60;99.90
10437;DHT22;5265;50.006;9.202;2023-04-16T13:30:51;10.80;99.90
10437;DHT22;5265;50.006;9.202;2023-04-16T13:33:18;10.80;99.90
10437;DHT22;5265;50.006;9.202;2023-04-16T13:35:46;10.80;99.90
10437;DHT22;5265;50.006;9.202;2023-04-16T13:38:15;10.80;99.90
10437;DHT22;5265;50.006;9.202;2023-04-16T13:40:42;10.80;99.90
10437;DHT22;5265;50.006;9.202;2023-04-16T13:43:10;10.70;99.90
10437;DHT22;5265;50.006;9.202;2023-04-16T13:45:38;10.70;99.90
10437;DHT22;5265;50.006;9.202;2023-04-16T13:48:06;10.60;99.90
10437;DHT22;5265;50.006;9.202;2023-04-16T13:50:33;10.70;99.90
10437;DHT22;5265;50.006;9.202;2023-04-16T13:53:01;10.70;99.90
10437;DHT22;5265;50.006;9.202;2023-04-16T13:55:30;10.70;99.90
10437;DHT22;5265;50.006;9.202;2023-04-16T13:57:57;10.70;99.90
10437;DHT22;5265;50.006;9.202;2023-04-16T14:00:24;10.60;99.90
10437;DHT22;5265;50.006;9.202;2023-04-16T14:02:52;10.60;99.90
10437;DHT22;5265;50.006;9.202;2023-04-16T14:05:18;10.50;99.90
10437;DHT22;5265;50.006;9.202;2023-04-16T14:07:47;10.50;99.90
10437;DHT22;5265;50.006;9.202;2023-04-16T14:10:15;10.60;99.90
10437;DHT22;5265;50.006;9.202;2023-04-16T14:12:43;10.60;99.90
10437;DHT22;5265;50.006;9.202;2023-04-16T14:15:10;10.60;99.90
10437;DHT22;5265;50.006;9.202;2023-04-16T14:17:39;10.70;99.90
10437;DHT22;5265;50.006;9.202;2023-04-16T14:20:07;10.70;99.90
10437;DHT22;5265;50.006;9.202;2023-04-16T14:22:35;10.60;99.90
10437;DHT22;5265;50.006;9.202;2023-04-16T14:25:02;10.70;99.90
10437;DHT22;5265;50.006;9.202;2023-04-16T14:27:29;10.70;99.90
10437;DHT22;5265;50.006;9.202;2023-04-16T14:29:58;10.70;99.90
10437;DHT22;5265;50.006;9.202;2023-04-16T14:32:24;10.70;99.90
10437;DHT22;5265;50.006;9.202;2023-04-16T14:34:52;10.80;99.90
10437;DHT22;5265;50.006;9.202;2023-04-16T14:37:19;10.80;99.90
10437;DHT22;5265;50.006;9.202;2023-04-16T14:39:46;10.80;99.90
10437;DHT22;5265;50.006;9.202;2023-04-16T14:42:13;10.70;99.90
10437;DHT22;5265;50.006;9.202;2023-04-16T14:44:40;10.70;99.90
10437;DHT22;5265;50.006;9.202;2023-04-16T14:47:09;10.70;99.90
10437;DHT22;5265;50.006;9.202;2023-04-16T14:49:35;10.80;99.90
10437;DHT22;5265;50.006;9.202;2023-04-16T14:52:03;10.90;99.90
10437;DHT22;5265;50.006;9.202;2023-04-16T14:54:31;10.90;99.90
10437;DHT22;5265;50.006;9.202;2023-04-16T14:56:59;10.90;99.90
10437;DHT22;5265;50.006;9.202;2023-04-16T14:59:26;10.90;99.90
10437;DHT22;5265;50.006;9.202;2023-04-16T15:01:54;10.90;99.90
10437;DHT22;5265;50.006;9.202;2023-04-16T15:04:22;10.80;99.90
10437;DHT22;5265;50.006;9.202;2023-04-16T15:06:50;10.80;99.90
10437;DHT22;5265;50.006;9.202;2023-04-16T15:09:17;10.70;99.90
10437;DHT22;5265;50.006;9.202;2023-04-16T15:11:44;10.70;99.90
10437;DHT22;5265;50.006;9.202;2023-04-16T15:14:11;10.70;99.90
10437;DHT22;5265;50.006;9.202;2023-04-16T15:16:38;10.60;99.90
10437;DHT22;5265;50.006;9.202;2023-04-16T15:19:05;10.60;99.90
10437;DHT22;5265;50.006;9.202;2023-04-16T15:21:34;10.70;99.90
10437;DHT22;5265;50.006;9.202;2023-04-16T15:24:01;10.70;99.90
10437;DHT22;5265;50.006;9.202;2023-04-16T15:26:29;10.70;99.90
10437;DHT22;5265;50.006;9.202;2023-04-16T15:28:56;10.80;99.90
10437;DHT22;5265;50.006;9.202;2023-04-16T15:31:23;10.90;99.90
10437;DHT22;5265;50.006;9.202;2023-04-16T15:33:51;10.90;99.90
10437;DHT22;5265;50.006;9.202;2023-04-16T15:36:18;10.90;99.90
10437;DHT22;5265;50.006;9.202;2023-04-16T15:38:47;11.00;99.90
10437;DHT22;5265;50.006;9.202;2023-04-16T15:41:14;10.90;99.90
10437;DHT22;5265;50.006;9.202;2023-04-16T15:43:41;10.90;99.90
10437;DHT22;5265;50.006;9.202;2023-04-16T15:46:08;10.90;99.90
10437;DHT22;5265;50.006;9.202;2023-04-16T15:48:35;11.00;99.90
10437;DHT22;5265;50.006;9.202;2023-04-16T15:51:02;11.00;99.90
10437;DHT22;5265;50.006;9.202;2023-04-16T15:53:30;11.00;99.90
10437;DHT22;5265;50.006;9.202;2023-04-16T15:55:58;11.10;99.90
10437;DHT22;5265;50.006;9.202;2023-04-16T15:58:25;11.10;99.90
10437;DHT22;5265;50.006;9.202;2023-04-16T16:00:53;11.10;99.90
10437;DHT22;5265;50.006;9.202;2023-04-16T16:03:20;11.10;99.90
10437;DHT22;5265;50.006;9.202;2023-04-16T16:05:47;11.10;99.90
10437;DHT22;5265;50.006;9.202;2023-04-16T16:08:14;11.10;99.90